sensor_id;sensor_type;location;lat;lon;timestamp;pressure;altitude;pressure_sealevel;temperature;humidity
30935;BME280;51033;42.648;23.292;2023-08-01T00:02:19;93588.97;;;21.84;47.55
30935;BME280;51033;42.648;23.292;2023-08-01T00:04:45;93592.06;;;21.83;47.98
30935;BME280;51033;42.648;23.292;2023-08-01T00:07:10;93589.34;;;21.83;47.65
30935;BME280;51033;42.648;23.292;2023-08-01T00:09:36;93587.41;;;21.66;47.51
30935;BME280;51033;42.648;23.292;2023-08-01T00:12:01;93585.13;;;21.64;47.92
30935;BME280;51033;42.648;23.292;2023-08-01T00:14:26;93584.34;;;21.60;48.08
30935;BME280;51033;42.648;23.292;2023-08-01T00:16:52;93578.94;;;21.57;48.17
30935;BME280;51033;42.648;23.292;2023-08-01T00:19:18;93563.44;;;21.46;47.92
30935;BME280;51033;42.648;23.292;2023-08-01T00:21:43;93572.75;;;21.45;47.88
30935;BME280;51033;42.648;23.292;2023-08-01T00:24:09;93584.31;;;21.53;47.77
30935;BME280;51033;42.648;23.292;2023-08-01T00:26:34;93575.06;;;21.51;47.81
30935;BME280;51033;42.648;23.292;2023-08-01T00:29:00;93579.69;;;21.54;48.06
30935;BME280;51033;42.648;23.292;2023-08-01T00:31:25;93572.72;;;21.38;48.15
30935;BME280;51033;42.648;23.292;2023-08-01T00:33:51;93561.91;;;21.35;47.36
30935;BME280;51033;42.648;23.292;2023-08-01T00:36:16;93581.22;;;21.44;47.68
30935;BME280;51033;42.648;23.292;2023-08-01T00:38:41;93572.75;;;21.35;48.47
30935;BME280;51033;42.648;23.292;2023-08-01T00:41:09;93577.34;;;21.27;47.89
30935;BME280;51033;42.648;23.292;2023-08-01T00:43:34;93581.22;;;21.33;47.66
30935;BME280;51033;42.648;23.292;2023-08-01T00:46:01;93579.69;;;21.36;48.04
30935;BME280;51033;42.648;23.292;2023-08-01T00:48:29;93578.53;;;21.26;48.14
30935;BME280;51033;42.648;23.292;2023-08-01T00:50:54;93574.28;;;21.32;48.26
30935;BME280;51033;42.648;23.292;2023-08-01T00:53:22;93578.53;;;21.33;48.64
30935;BME280;51033;42.648;23.292;2023-08-01T00:55:48;93571.16;;;21.27;48.02
30935;BME280;51033;42.648;23.292;2023-08-01T00:58:14;93558.44;;;21.20;48.13
30935;BME280;51033;42.648;23.292;2023-08-01T01:00:39;93560.38;;;21.16;48.38
30935;BME280;51033;42.648;23.292;2023-08-01T01:03:05;93565.78;;;21.23;48.20
30935;BME280;51033;42.648;23.292;2023-08-01T01:05:36;93550.31;;;21.06;48.78
30935;BME280;51033;42.648;23.292;2023-08-01T01:08:04;93564.97;;;21.12;48.87
30935;BME280;51033;42.648;23.292;2023-08-01T01:10:30;93564.97;;;21.12;48.53
30935;BME280;51033;42.648;23.292;2023-08-01T01:12:56;93546.06;;;21.01;48.34
30935;BME280;51033;42.648;23.292;2023-08-01T01:15:21;93565.38;;;21.07;48.79
30935;BME280;51033;42.648;23.292;2023-08-01T01:17:46;93542.19;;;20.99;48.22
30935;BME280;51033;42.648;23.292;2023-08-01T01:20:12;93546.44;;;21.07;48.31
30935;BME280;51033;42.648;23.292;2023-08-01T01:22:38;93541.81;;;21.04;48.69
30935;BME280;51033;42.648;23.292;2023-08-01T01:25:05;93534.84;;;21.03;48.21
30935;BME280;51033;42.648;23.292;2023-08-01T01:27:32;93551.09;;;21.10;48.70
30935;BME280;51033;42.648;23.292;2023-08-01T01:29:59;93547.22;;;21.04;48.94
30935;BME280;51033;42.648;23.292;2023-08-01T01:32:26;93548.78;;;21.05;48.78
30935;BME280;51033;42.648;23.292;2023-08-01T01:34:52;93544.13;;;21.09;47.86
30935;BME280;51033;42.648;23.292;2023-08-01T01:37:17;93531.00;;;20.97;47.80
30935;BME280;51033;42.648;23.292;2023-08-01T01:39:43;93541.44;;;21.13;47.62
30935;BME280;51033;42.648;23.292;2023-08-01T01:42:08;93550.34;;;21.17;47.38
30935;BME280;51033;42.648;23.292;2023-08-01T01:44:34;93523.28;;;21.06;47.35
30935;BME280;51033;42.648;23.292;2023-08-01T01:46:59;93533.72;;;21.18;47.11
30935;BME280;51033;42.648;23.292;2023-08-01T01:49:24;93544.91;;;21.20;46.83
30935;BME280;51033;42.648;23.292;2023-08-01T01:51:51;93534.47;;;21.08;47.17
30935;BME280;51033;42.648;23.292;2023-08-01T01:54:16;93546.47;;;21.14;46.97
30935;BME280;51033;42.648;23.292;2023-08-01T01:56:42;93534.47;;;21.01;46.96
30935;BME280;51033;42.648;23.292;2023-08-01T01:59:07;93550.31;;;21.10;47.91
30935;BME280;51033;42.648;23.292;2023-08-01T02:01:32;93537.56;;;21.03;47.39
30935;BME280;51033;42.648;23.292;2023-08-01T02:03:58;93553.78;;;21.17;46.88
30935;BME280;51033;42.648;23.292;2023-08-01T02:06:23;93535.25;;;21.05;46.80
30935;BME280;51033;42.648;23.292;2023-08-01T02:08:48;93535.63;;;21.00;46.56
30935;BME280;51033;42.648;23.292;2023-08-01T02:11:14;93540.66;;;21.05;46.45
30935;BME280;51033;42.648;23.292;2023-08-01T02:13:39;93545.31;;;21.12;47.03
30935;BME280;51033;42.648;23.292;2023-08-01T02:16:04;93551.50;;;21.16;46.44
30935;BME280;51033;42.648;23.292;2023-08-01T02:18:30;93541.06;;;21.21;46.08
30935;BME280;51033;42.648;23.292;2023-08-01T02:20:55;93544.13;;;21.27;46.40
30935;BME280;51033;42.648;23.292;2023-08-01T02:23:21;93545.28;;;21.19;48.02
30935;BME280;51033;42.648;23.292;2023-08-01T02:25:46;93546.84;;;21.23;46.91
30935;BME280;51033;42.648;23.292;2023-08-01T02:28:11;93536.41;;;21.18;47.67
30935;BME280;51033;42.648;23.292;2023-08-01T02:30:37;93537.19;;;21.19;47.37
30935;BME280;51033;42.648;23.292;2023-08-01T02:33:03;93540.28;;;21.21;47.50
30935;BME280;51033;42.648;23.292;2023-08-01T02:35:29;93549.91;;;21.22;47.84
30935;BME280;51033;42.648;23.292;2023-08-01T02:37:55;93549.94;;;21.11;47.42
30935;BME280;51033;42.648;23.292;2023-08-01T02:40:20;93543.34;;;21.12;47.32
30935;BME280;51033;42.648;23.292;2023-08-01T02:42:46;93535.63;;;21.03;47.17
30935;BME280;51033;42.648;23.292;2023-08-01T02:45:11;93545.31;;;21.01;47.29
30935;BME280;51033;42.648;23.292;2023-08-01T02:47:37;93538.28;;;20.86;45.43
30935;BME280;51033;42.648;23.292;2023-08-01T02:50:05;93554.94;;;20.95;45.74
30935;BME280;51033;42.648;23.292;2023-08-01T02:52:31;93548.75;;;20.87;46.27
30935;BME280;51033;42.648;23.292;2023-08-01T02:54:56;93541.41;;;20.88;46.45
30935;BME280;51033;42.648;23.292;2023-08-01T02:57:22;93553.03;;;20.92;46.11
30935;BME280;51033;42.648;23.292;2023-08-01T02:59:47;93543.69;;;20.79;45.92
30935;BME280;51033;42.648;23.292;2023-08-01T03:02:13;93529.03;;;20.76;46.21
30935;BME280;51033;42.648;23.292;2023-08-01T03:04:38;93544.84;;;20.85;46.01
30935;BME280;51033;42.648;23.292;2023-08-01T03:07:04;93535.19;;;20.77;46.08
30935;BME280;51033;42.648;23.292;2023-08-01T03:09:29;93530.94;;;20.72;46.03
30935;BME280;51033;42.648;23.292;2023-08-01T03:11:54;93552.16;;;20.74;46.12
30935;BME280;51033;42.648;23.292;2023-08-01T03:14:20;93523.19;;;20.60;46.19
30935;BME280;51033;42.648;23.292;2023-08-01T03:16:45;93540.19;;;20.64;45.74
30935;BME280;51033;42.648;23.292;2023-08-01T03:19:11;93536.69;;;20.64;46.53
30935;BME280;51033;42.648;23.292;2023-08-01T03:21:36;93529.38;;;20.57;46.71
30935;BME280;51033;42.648;23.292;2023-08-01T03:24:04;93534.00;;;20.53;46.46
30935;BME280;51033;42.648;23.292;2023-08-01T03:26:34;93539.00;;;20.54;46.82
30935;BME280;51033;42.648;23.292;2023-08-01T03:28:59;93545.56;;;20.53;47.33
30935;BME280;51033;42.648;23.292;2023-08-01T03:31:25;93538.22;;;20.43;46.64
30935;BME280;51033;42.648;23.292;2023-08-01T03:33:50;93554.44;;;20.43;47.35
30935;BME280;51033;42.648;23.292;2023-08-01T03:36:16;93556.31;;;20.39;46.94
30935;BME280;51033;42.648;23.292;2023-08-01T03:38:41;93528.50;;;20.25;47.03
30935;BME280;51033;42.648;23.292;2023-08-01T03:41:06;93553.25;;;20.37;47.34
30935;BME280;51033;42.648;23.292;2023-08-01T03:43:32;93555.53;;;20.35;47.72
30935;BME280;51033;42.648;23.292;2023-08-01T03:45:57;93557.03;;;20.29;47.58
30935;BME280;51033;42.648;23.292;2023-08-01T03:48:22;93559.75;;;20.29;46.89
30935;BME280;51033;42.648;23.292;2023-08-01T03:50:48;93550.88;;;20.25;47.25
30935;BME280;51033;42.648;23.292;2023-08-01T03:53:13;93556.31;;;20.32;47.74
30935;BME280;51033;42.648;23.292;2023-08-01T03:55:39;93545.47;;;20.25;47.84
30935;BME280;51033;42.648;23.292;2023-08-01T03:58:04;93553.97;;;20.31;48.03
30935;BME280;51033;42.648;23.292;2023-08-01T04:00:29;93543.09;;;20.13;47.91
30935;BME280;51033;42.648;23.292;2023-08-01T04:02:58;93554.34;;;20.26;47.25
30935;BME280;51033;42.648;23.292;2023-08-01T04:05:24;93565.19;;;20.36;47.19
30935;BME280;51033;42.648;23.292;2023-08-01T04:07:49;93559.00;;;20.39;47.18
30935;BME280;51033;42.648;23.292;2023-08-01T04:10:15;93554.00;;;20.38;47.97
30935;BME280;51033;42.648;23.292;2023-08-01T04:12:40;93566.38;;;20.49;48.25
30935;BME280;51033;42.648;23.292;2023-08-01T04:15:08;93559.06;;;20.53;47.74
30935;BME280;51033;42.648;23.292;2023-08-01T04:17:33;93565.63;;;20.59;47.96
30935;BME280;51033;42.648;23.292;2023-08-01T04:19:59;93553.28;;;20.51;47.71
30935;BME280;51033;42.648;23.292;2023-08-01T04:22:24;93564.88;;;20.55;47.70
30935;BME280;51033;42.648;23.292;2023-08-01T04:24:49;93569.94;;;20.71;48.03
30935;BME280;51033;42.648;23.292;2023-08-01T04:27:15;93569.16;;;20.74;48.71
30935;BME280;51033;42.648;23.292;2023-08-01T04:29:41;93570.31;;;20.70;49.02
30935;BME280;51033;42.648;23.292;2023-08-01T04:32:07;93569.56;;;20.80;48.72
30935;BME280;51033;42.648;23.292;2023-08-01T04:34:32;93569.16;;;20.78;49.06
30935;BME280;51033;42.648;23.292;2023-08-01T04:36:57;93558.75;;;20.73;49.66
30935;BME280;51033;42.648;23.292;2023-08-01T04:39:23;93569.16;;;20.78;50.08
30935;BME280;51033;42.648;23.292;2023-08-01T04:41:48;93570.69;;;20.72;50.83
30935;BME280;51033;42.648;23.292;2023-08-01T04:44:15;93571.88;;;20.81;50.67
30935;BME280;51033;42.648;23.292;2023-08-01T04:46:40;93564.16;;;20.73;50.47
30935;BME280;51033;42.648;23.292;2023-08-01T04:49:06;93569.16;;;20.71;50.34
30935;BME280;51033;42.648;23.292;2023-08-01T04:51:31;93564.50;;;20.64;50.96
30935;BME280;51033;42.648;23.292;2023-08-01T04:53:56;93557.19;;;20.72;50.27
30935;BME280;51033;42.648;23.292;2023-08-01T04:56:22;93551.41;;;20.77;49.86
30935;BME280;51033;42.648;23.292;2023-08-01T04:58:47;93534.78;;;20.75;49.64
30935;BME280;51033;42.648;23.292;2023-08-01T05:01:13;93575.81;;;21.01;48.86
30935;BME280;51033;42.648;23.292;2023-08-01T05:03:38;93571.94;;;21.06;49.29
30935;BME280;51033;42.648;23.292;2023-08-01T05:06:03;93560.34;;;20.95;49.55
30935;BME280;51033;42.648;23.292;2023-08-01T05:08:29;93552.22;;;20.88;50.16
30935;BME280;51033;42.648;23.292;2023-08-01T05:10:54;93549.53;;;20.95;49.59
30935;BME280;51033;42.648;23.292;2023-08-01T05:13:20;93561.13;;;21.10;49.84
30935;BME280;51033;42.648;23.292;2023-08-01T05:15:46;93556.13;;;21.15;49.54
30935;BME280;51033;42.648;23.292;2023-08-01T05:18:16;93572.34;;;21.22;49.00
30935;BME280;51033;42.648;23.292;2023-08-01T05:20:42;93573.50;;;21.21;48.74
30935;BME280;51033;42.648;23.292;2023-08-01T05:23:08;93566.16;;;21.00;48.42
30935;BME280;51033;42.648;23.292;2023-08-01T05:25:34;93564.22;;;21.01;48.76
30935;BME280;51033;42.648;23.292;2023-08-01T05:27:59;93575.38;;;20.92;49.43
30935;BME280;51033;42.648;23.292;2023-08-01T05:30:25;93568.78;;;20.83;49.21
30935;BME280;51033;42.648;23.292;2023-08-01T05:32:50;93566.91;;;20.94;49.13
30935;BME280;51033;42.648;23.292;2023-08-01T05:35:16;93568.84;;;20.97;48.98
30935;BME280;51033;42.648;23.292;2023-08-01T05:37:42;93580.00;;;20.85;49.14
30935;BME280;51033;42.648;23.292;2023-08-01T05:40:08;93570.00;;;20.96;48.68
30935;BME280;51033;42.648;23.292;2023-08-01T05:42:33;93571.84;;;20.78;49.03
30935;BME280;51033;42.648;23.292;2023-08-01T05:44:59;93566.41;;;20.64;49.43
30935;BME280;51033;42.648;23.292;2023-08-01T05:47:24;93568.78;;;20.76;49.56
30935;BME280;51033;42.648;23.292;2023-08-01T05:49:50;93565.66;;;20.63;48.46
30935;BME280;51033;42.648;23.292;2023-08-01T05:52:15;93561.44;;;20.80;49.72
30935;BME280;51033;42.648;23.292;2023-08-01T05:54:40;93561.50;;;20.90;49.00
30935;BME280;51033;42.648;23.292;2023-08-01T05:57:08;93568.47;;;21.02;48.76
30935;BME280;51033;42.648;23.292;2023-08-01T05:59:33;93561.88;;;21.03;47.93
30935;BME280;51033;42.648;23.292;2023-08-01T06:01:59;93571.94;;;20.99;47.68
30935;BME280;51033;42.648;23.292;2023-08-01T06:04:24;93562.66;;;21.07;47.61
30935;BME280;51033;42.648;23.292;2023-08-01T06:06:50;93554.16;;;21.12;47.25
30935;BME280;51033;42.648;23.292;2023-08-01T06:09:15;93568.47;;;21.34;47.00
30935;BME280;51033;42.648;23.292;2023-08-01T06:11:40;93554.19;;;21.26;46.60
30935;BME280;51033;42.648;23.292;2023-08-01T06:14:06;93558.03;;;21.22;46.20
30935;BME280;51033;42.648;23.292;2023-08-01T06:16:31;93563.06;;;21.06;45.61
30935;BME280;51033;42.648;23.292;2023-08-01T06:18:58;93565.00;;;21.26;46.33
30935;BME280;51033;42.648;23.292;2023-08-01T06:21:23;93560.38;;;21.34;46.19
30935;BME280;51033;42.648;23.292;2023-08-01T06:23:48;93556.50;;;21.42;47.91
30935;BME280;51033;42.648;23.292;2023-08-01T06:26:14;93554.94;;;21.52;46.15
30935;BME280;51033;42.648;23.292;2023-08-01T06:28:41;93555.72;;;21.66;44.85
30935;BME280;51033;42.648;23.292;2023-08-01T06:31:06;93566.16;;;21.68;43.96
30935;BME280;51033;42.648;23.292;2023-08-01T06:33:31;93549.53;;;21.62;44.75
30935;BME280;51033;42.648;23.292;2023-08-01T06:35:57;93552.25;;;21.73;43.83
30935;BME280;51033;42.648;23.292;2023-08-01T06:38:22;93553.41;;;21.75;44.50
30935;BME280;51033;42.648;23.292;2023-08-01T06:40:47;93548.75;;;21.76;43.35
30935;BME280;51033;42.648;23.292;2023-08-01T06:43:13;93534.44;;;21.72;43.91
30935;BME280;51033;42.648;23.292;2023-08-01T06:45:38;93546.41;;;21.92;42.99
30935;BME280;51033;42.648;23.292;2023-08-01T06:48:04;93551.06;;;21.88;41.85
30935;BME280;51033;42.648;23.292;2023-08-01T06:50:29;93547.53;;;21.98;42.08
30935;BME280;51033;42.648;23.292;2023-08-01T06:52:54;93547.09;;;22.10;42.36
30935;BME280;51033;42.648;23.292;2023-08-01T06:55:20;93545.53;;;22.16;42.17
30935;BME280;51033;42.648;23.292;2023-08-01T06:57:45;93549.41;;;22.15;41.46
30935;BME280;51033;42.648;23.292;2023-08-01T07:00:11;93552.50;;;22.24;41.86
30935;BME280;51033;42.648;23.292;2023-08-01T07:02:36;93554.06;;;22.29;41.89
30935;BME280;51033;42.648;23.292;2023-08-01T07:05:02;93546.69;;;22.33;41.82
30935;BME280;51033;42.648;23.292;2023-08-01T07:07:27;93554.78;;;22.44;42.58
30935;BME280;51033;42.648;23.292;2023-08-01T07:09:53;93553.16;;;22.50;42.41
30935;BME280;51033;42.648;23.292;2023-08-01T07:12:18;93546.94;;;22.56;42.15
30935;BME280;51033;42.648;23.292;2023-08-01T07:14:43;93543.81;;;22.65;42.58
30935;BME280;51033;42.648;23.292;2023-08-01T07:17:09;93539.53;;;22.64;42.42
30935;BME280;51033;42.648;23.292;2023-08-01T07:19:36;93529.50;;;22.61;41.66
30935;BME280;51033;42.648;23.292;2023-08-01T07:22:02;93537.56;;;22.75;41.90
30935;BME280;51033;42.648;23.292;2023-08-01T07:24:27;93528.25;;;22.76;42.91
30935;BME280;51033;42.648;23.292;2023-08-01T07:26:53;93526.38;;;22.66;41.95
30935;BME280;51033;42.648;23.292;2023-08-01T07:29:18;93518.97;;;22.77;42.23
30935;BME280;51033;42.648;23.292;2023-08-01T07:31:44;93522.81;;;22.80;41.64
30935;BME280;51033;42.648;23.292;2023-08-01T07:34:09;93529.75;;;22.91;41.70
30935;BME280;51033;42.648;23.292;2023-08-01T07:36:35;93521.28;;;22.75;41.09
30935;BME280;51033;42.648;23.292;2023-08-01T07:39:00;93532.13;;;22.75;41.85
30935;BME280;51033;42.648;23.292;2023-08-01T07:41:25;93534.41;;;22.80;42.07
30935;BME280;51033;42.648;23.292;2023-08-01T07:43:51;93522.44;;;22.74;41.84
30935;BME280;51033;42.648;23.292;2023-08-01T07:46:16;93516.66;;;22.72;42.00
30935;BME280;51033;42.648;23.292;2023-08-01T07:48:42;93531.47;;;22.57;42.00
30935;BME280;51033;42.648;23.292;2023-08-01T07:51:07;93518.34;;;22.52;42.35
30935;BME280;51033;42.648;23.292;2023-08-01T07:53:35;93515.94;;;22.68;42.76
30935;BME280;51033;42.648;23.292;2023-08-01T07:56:01;93508.97;;;22.63;42.41
30935;BME280;51033;42.648;23.292;2023-08-01T07:58:31;93520.91;;;22.77;43.23
30935;BME280;51033;42.648;23.292;2023-08-01T08:01:04;93528.19;;;22.90;42.81
30935;BME280;51033;42.648;23.292;2023-08-01T08:03:30;93517.31;;;22.97;42.45
30935;BME280;51033;42.648;23.292;2023-08-01T08:05:59;93512.69;;;22.91;42.09
30935;BME280;51033;42.648;23.292;2023-08-01T08:08:25;93517.59;;;23.10;42.82
30935;BME280;51033;42.648;23.292;2023-08-01T08:10:50;93510.28;;;23.03;41.79
30935;BME280;51033;42.648;23.292;2023-08-01T08:13:16;93501.03;;;22.97;42.80
30935;BME280;51033;42.648;23.292;2023-08-01T08:15:41;93507.25;;;22.94;42.22
30935;BME280;51033;42.648;23.292;2023-08-01T08:18:07;93523.09;;;22.99;41.98
30935;BME280;51033;42.648;23.292;2023-08-01T08:20:39;93503.72;;;23.01;42.68
30935;BME280;51033;42.648;23.292;2023-08-01T08:23:05;93505.63;;;23.04;42.76
30935;BME280;51033;42.648;23.292;2023-08-01T08:25:30;93497.91;;;23.02;42.19
30935;BME280;51033;42.648;23.292;2023-08-01T08:27:56;93484.00;;;22.93;41.75
30935;BME280;51033;42.648;23.292;2023-08-01T08:30:21;93505.75;;;22.86;41.81
30935;BME280;51033;42.648;23.292;2023-08-01T08:32:46;93495.78;;;22.65;43.29
30935;BME280;51033;42.648;23.292;2023-08-01T08:35:12;93488.00;;;22.71;42.65
30935;BME280;51033;42.648;23.292;2023-08-01T08:37:37;93487.78;;;22.48;42.88
30935;BME280;51033;42.648;23.292;2023-08-01T08:40:03;93489.28;;;22.52;42.94
30935;BME280;51033;42.648;23.292;2023-08-01T08:42:29;93476.88;;;22.58;43.38
30935;BME280;51033;42.648;23.292;2023-08-01T08:44:55;93480.63;;;22.75;43.24
30935;BME280;51033;42.648;23.292;2023-08-01T08:47:25;93487.13;;;22.88;42.24
30935;BME280;51033;42.648;23.292;2023-08-01T08:49:51;93489.38;;;23.00;43.03
30935;BME280;51033;42.648;23.292;2023-08-01T08:52:18;93478.16;;;22.98;42.42
30935;BME280;51033;42.648;23.292;2023-08-01T08:54:44;93479.66;;;23.06;42.86
30935;BME280;51033;42.648;23.292;2023-08-01T08:57:10;93483.81;;;23.18;42.46
30935;BME280;51033;42.648;23.292;2023-08-01T08:59:38;93461.75;;;23.16;42.09
30935;BME280;51033;42.648;23.292;2023-08-01T09:02:04;93477.50;;;23.32;43.65
30935;BME280;51033;42.648;23.292;2023-08-01T09:04:31;93467.47;;;23.25;42.01
30935;BME280;51033;42.648;23.292;2023-08-01T09:07:05;93469.38;;;23.32;41.62
30935;BME280;51033;42.648;23.292;2023-08-01T09:09:32;93470.44;;;23.38;42.39
30935;BME280;51033;42.648;23.292;2023-08-01T09:11:58;93447.19;;;23.37;42.18
30935;BME280;51033;42.648;23.292;2023-08-01T09:14:24;93459.41;;;23.59;41.36
30935;BME280;51033;42.648;23.292;2023-08-01T09:16:49;93459.59;;;23.79;43.16
30935;BME280;51033;42.648;23.292;2023-08-01T09:19:19;93464.53;;;23.87;41.67
30935;BME280;51033;42.648;23.292;2023-08-01T09:21:46;93457.53;;;23.90;42.62
30935;BME280;51033;42.648;23.292;2023-08-01T09:24:21;93451.66;;;23.95;43.30
30935;BME280;51033;42.648;23.292;2023-08-01T09:26:48;93449.53;;;24.10;42.99
30935;BME280;51033;42.648;23.292;2023-08-01T09:29:16;93451.88;;;24.08;40.96
30935;BME280;51033;42.648;23.292;2023-08-01T09:31:42;93448.34;;;24.14;40.74
30935;BME280;51033;42.648;23.292;2023-08-01T09:34:25;93439.13;;;24.35;42.58
30935;BME280;51033;42.648;23.292;2023-08-01T09:36:57;93425.28;;;24.26;41.28
30935;BME280;51033;42.648;23.292;2023-08-01T09:39:22;93445.31;;;24.39;41.89
30935;BME280;51033;42.648;23.292;2023-08-01T09:42:01;93434.44;;;24.39;42.76
30935;BME280;51033;42.648;23.292;2023-08-01T09:44:28;93439.00;;;24.15;40.48
30935;BME280;51033;42.648;23.292;2023-08-01T09:46:59;93430.16;;;24.08;39.56
30935;BME280;51033;42.648;23.292;2023-08-01T09:49:24;93410.75;;;24.06;40.75
30935;BME280;51033;42.648;23.292;2023-08-01T09:51:50;93430.22;;;24.00;40.76
30935;BME280;51033;42.648;23.292;2023-08-01T09:54:16;93442.00;;;23.90;40.69
30935;BME280;51033;42.648;23.292;2023-08-01T09:56:44;93433.53;;;23.85;41.08
30935;BME280;51033;42.648;23.292;2023-08-01T09:59:10;93430.84;;;23.81;40.86
30935;BME280;51033;42.648;23.292;2023-08-01T10:01:38;93422.19;;;23.93;40.46
30935;BME280;51033;42.648;23.292;2023-08-01T10:04:04;93410.88;;;23.98;40.46
30935;BME280;51033;42.648;23.292;2023-08-01T10:06:33;93395.28;;;24.02;41.04
30935;BME280;51033;42.648;23.292;2023-08-01T10:08:59;93398.22;;;24.19;41.22
30935;BME280;51033;42.648;23.292;2023-08-01T10:11:26;93406.50;;;24.35;40.13
30935;BME280;51033;42.648;23.292;2023-08-01T10:13:52;93385.09;;;24.14;40.73
30935;BME280;51033;42.648;23.292;2023-08-01T10:16:17;93382.63;;;24.23;40.08
30935;BME280;51033;42.648;23.292;2023-08-01T10:18:43;93395.63;;;24.35;41.47
30935;BME280;51033;42.648;23.292;2023-08-01T10:21:12;93387.66;;;24.51;41.69
30935;BME280;51033;42.648;23.292;2023-08-01T10:23:38;93381.38;;;24.54;40.01
30935;BME280;51033;42.648;23.292;2023-08-01T10:26:07;93382.81;;;24.62;43.39
30935;BME280;51033;42.648;23.292;2023-08-01T10:28:34;93396.25;;;24.46;40.25
30935;BME280;51033;42.648;23.292;2023-08-01T10:31:14;93387.19;;;24.56;39.71
30935;BME280;51033;42.648;23.292;2023-08-01T10:33:42;93387.22;;;24.79;42.12
30935;BME280;51033;42.648;23.292;2023-08-01T10:36:24;93379.91;;;24.76;40.45
30935;BME280;51033;42.648;23.292;2023-08-01T10:38:57;93375.56;;;24.79;39.96
30935;BME280;51033;42.648;23.292;2023-08-01T10:44:24;93370.66;;;25.17;40.44
30935;BME280;51033;42.648;23.292;2023-08-01T10:46:59;93347.47;;;25.09;39.50
30935;BME280;51033;42.648;23.292;2023-08-01T10:49:43;93349.31;;;25.15;38.03
30935;BME280;51033;42.648;23.292;2023-08-01T10:52:25;93357.63;;;25.28;38.27
30935;BME280;51033;42.648;23.292;2023-08-01T10:54:57;93361.59;;;25.23;39.49
30935;BME280;51033;42.648;23.292;2023-08-01T10:57:24;93360.81;;;25.46;37.53
30935;BME280;51033;42.648;23.292;2023-08-01T10:59:50;93356.88;;;25.47;38.39
30935;BME280;51033;42.648;23.292;2023-08-01T11:02:23;93350.97;;;25.52;38.55
30935;BME280;51033;42.648;23.292;2023-08-01T11:04:59;93337.13;;;25.43;38.32
30935;BME280;51033;42.648;23.292;2023-08-01T11:07:25;93333.09;;;25.51;38.03
30935;BME280;51033;42.648;23.292;2023-08-01T11:10:06;93336.72;;;25.64;37.62
30935;BME280;51033;42.648;23.292;2023-08-01T11:12:40;93302.22;;;25.58;37.97
30935;BME280;51033;42.648;23.292;2023-08-01T11:15:08;93289.56;;;25.51;37.33
30935;BME280;51033;42.648;23.292;2023-08-01T11:17:42;93307.19;;;25.63;36.74
30935;BME280;51033;42.648;23.292;2023-08-01T11:20:09;93310.03;;;25.76;37.19
30935;BME280;51033;42.648;23.292;2023-08-01T11:22:36;93317.56;;;25.88;36.90
30935;BME280;51033;42.648;23.292;2023-08-01T11:25:02;93297.41;;;25.65;36.01
30935;BME280;51033;42.648;23.292;2023-08-01T11:27:28;93290.56;;;25.57;35.54
30935;BME280;51033;42.648;23.292;2023-08-01T11:29:54;93313.00;;;26.01;36.85
30935;BME280;51033;42.648;23.292;2023-08-01T11:32:21;93313.59;;;25.92;35.99
30935;BME280;51033;42.648;23.292;2023-08-01T11:34:47;93305.59;;;26.01;36.31
30935;BME280;51033;42.648;23.292;2023-08-01T11:37:14;93285.69;;;26.04;39.32
30935;BME280;51033;42.648;23.292;2023-08-01T11:39:40;93312.03;;;26.27;36.57
30935;BME280;51033;42.648;23.292;2023-08-01T11:42:06;93309.66;;;26.29;36.55
30935;BME280;51033;42.648;23.292;2023-08-01T11:44:31;93298.75;;;26.29;37.23
30935;BME280;51033;42.648;23.292;2023-08-01T11:46:57;93300.31;;;26.46;35.04
30935;BME280;51033;42.648;23.292;2023-08-01T11:49:22;93285.44;;;26.31;34.87
30935;BME280;51033;42.648;23.292;2023-08-01T11:51:48;93294.66;;;26.37;33.40
30935;BME280;51033;42.648;23.292;2023-08-01T11:54:15;93279.22;;;26.31;34.85
30935;BME280;51033;42.648;23.292;2023-08-01T11:56:41;93279.84;;;26.38;34.34
30935;BME280;51033;42.648;23.292;2023-08-01T11:59:16;93286.75;;;26.43;34.43
30935;BME280;51033;42.648;23.292;2023-08-01T12:01:44;93281.69;;;26.25;33.73
30935;BME280;51033;42.648;23.292;2023-08-01T12:04:10;93271.50;;;26.29;33.70
30935;BME280;51033;42.648;23.292;2023-08-01T12:06:35;93262.81;;;26.34;33.87
30935;BME280;51033;42.648;23.292;2023-08-01T12:09:11;93261.84;;;26.41;34.57
30935;BME280;51033;42.648;23.292;2023-08-01T12:11:38;93265.00;;;26.72;37.11
30935;BME280;51033;42.648;23.292;2023-08-01T12:16:29;93261.09;;;26.73;31.76
30935;BME280;51033;42.648;23.292;2023-08-01T12:18:55;93255.81;;;26.66;30.84
30935;BME280;51033;42.648;23.292;2023-08-01T12:21:21;93268.00;;;26.77;31.19
30935;BME280;51033;42.648;23.292;2023-08-01T12:23:46;93252.81;;;26.76;30.26
30935;BME280;51033;42.648;23.292;2023-08-01T12:26:11;93251.53;;;26.81;30.39
30935;BME280;51033;42.648;23.292;2023-08-01T12:28:37;93246.06;;;26.81;30.14
30935;BME280;51033;42.648;23.292;2023-08-01T12:31:03;93255.88;;;26.78;30.15
30935;BME280;51033;42.648;23.292;2023-08-01T12:33:29;93247.09;;;26.71;30.22
30935;BME280;51033;42.648;23.292;2023-08-01T12:35:54;93245.41;;;26.77;30.60
30935;BME280;51033;42.648;23.292;2023-08-01T12:38:20;93246.41;;;26.83;29.68
30935;BME280;51033;42.648;23.292;2023-08-01T12:40:45;93243.38;;;26.65;28.94
30935;BME280;51033;42.648;23.292;2023-08-01T12:43:12;93244.63;;;26.76;28.46
30935;BME280;51033;42.648;23.292;2023-08-01T12:45:37;93239.97;;;27.06;26.48
30935;BME280;51033;42.648;23.292;2023-08-01T12:48:03;93240.41;;;27.04;26.97
30935;BME280;51033;42.648;23.292;2023-08-01T12:50:29;93221.47;;;26.97;28.76
30935;BME280;51033;42.648;23.292;2023-08-01T12:52:54;93206.16;;;27.16;26.37